createdAt,value
2022-12-14T00:00:08.596Z,10.77
2022-12-14T00:03:33.926Z,11.13
2022-12-14T00:06:41.437Z,8.27
2022-12-14T00:09:47.316Z,8.45
2022-12-14T00:12:52.182Z,11.40
2022-12-14T00:15:57.448Z,10.57
2022-12-14T00:19:03.148Z,12.18
2022-12-14T00:22:10.986Z,8.60
2022-12-14T00:25:15.884Z,11.95
2022-12-14T00:28:21.098Z,11.88
2022-12-14T00:31:26.588Z,9.77
2022-12-14T00:34:31.824Z,11.05
2022-12-14T00:37:39.730Z,10.75
2022-12-14T00:40:45.316Z,10.65
2022-12-14T00:43:50.193Z,13.05
2022-12-14T00:46:55.526Z,11.85
2022-12-14T00:50:00.396Z,10.43
2022-12-14T00:53:09.809Z,10.00
2022-12-14T00:56:15.067Z,8.43
2022-12-14T00:59:25.674Z,7.82
2022-12-14T01:02:32.160Z,9.35
2022-12-14T01:05:37.976Z,7.93
2022-12-14T01:08:45.727Z,9.38
2022-12-14T01:11:51.995Z,10.23
2022-12-14T01:14:56.962Z,11.07
2022-12-14T01:18:02.614Z,8.02
2022-12-14T01:21:14.725Z,11.18
2022-12-14T01:24:22.965Z,8.43
2022-12-14T01:27:28.871Z,11.27
2022-12-14T01:30:34.111Z,8.55
2022-12-14T01:33:39.076Z,8.52
2022-12-14T01:36:44.475Z,8.05
2022-12-14T01:39:52.566Z,10.60
2022-12-14T01:42:58.081Z,8.07
2022-12-14T01:46:02.993Z,8.25
2022-12-14T01:49:11.004Z,7.07
2022-12-14T01:52:17.204Z,9.00
2022-12-14T01:55:25.889Z,8.63
2022-12-14T01:58:31.235Z,7.68
2022-12-14T02:01:37.131Z,6.97
2022-12-14T02:04:44.875Z,9.30
2022-12-14T02:07:51.521Z,7.55
2022-12-14T02:10:59.778Z,6.18
2022-12-14T02:14:05.211Z,7.43
2022-12-14T02:17:10.499Z,7.53
2022-12-14T02:20:16.537Z,7.47
2022-12-14T02:23:36.367Z,5.38
2022-12-14T02:26:55.339Z,6.80
2022-12-14T02:30:09.364Z,8.43
2022-12-14T02:33:31.445Z,6.43
2022-12-14T02:36:37.942Z,6.65
2022-12-14T02:39:44.522Z,7.68
2022-12-14T02:42:54.971Z,4.72
2022-12-14T02:46:08.625Z,6.40
2022-12-14T02:49:14.444Z,7.20
2022-12-14T02:52:27.659Z,5.45
2022-12-14T02:58:39.446Z,4.55
2022-12-14T03:01:47.864Z,6.75
2022-12-14T03:04:53.616Z,6.47
2022-12-14T03:07:59.299Z,6.03
2022-12-14T03:11:08.070Z,7.10
2022-12-14T03:14:14.983Z,4.88
2022-12-14T03:17:25.047Z,6.20
2022-12-14T03:20:31.908Z,5.55
2022-12-14T03:23:38.865Z,3.38
2022-12-14T03:26:47.673Z,7.13
2022-12-14T03:29:55.614Z,5.50
2022-12-14T03:33:06.796Z,6.63
2022-12-14T03:36:14.728Z,2.83
2022-12-14T03:39:23.570Z,5.65
2022-12-14T03:42:31.210Z,6.90
2022-12-14T03:45:41.627Z,5.43
2022-12-14T03:48:51.933Z,7.68
2022-12-14T03:52:01.764Z,6.68
2022-12-14T03:55:11.031Z,6.70
2022-12-14T03:58:25.247Z,6.93
2022-12-14T04:01:36.119Z,4.28
2022-12-14T04:04:46.129Z,7.47
2022-12-14T04:07:54.518Z,5.50
2022-12-14T04:11:15.590Z,7.10
2022-12-14T04:14:34.917Z,3.78
2022-12-14T04:17:56.501Z,6.80
2022-12-14T04:21:07.158Z,6.55
2022-12-14T04:24:27.432Z,6.20
2022-12-14T04:27:35.636Z,5.95
2022-12-14T04:30:39.957Z,5.57
2022-12-14T04:33:50.605Z,9.63
2022-12-14T04:36:59.450Z,7.10
2022-12-14T04:40:08.204Z,8.00
2022-12-14T04:43:14.767Z,8.70
2022-12-14T04:46:21.498Z,6.82
2022-12-14T04:49:28.810Z,7.57
2022-12-14T04:52:39.183Z,5.97
2022-12-14T04:55:46.677Z,8.52
2022-12-14T04:58:54.279Z,5.57
2022-12-14T05:02:01.049Z,6.93
2022-12-14T05:05:11.180Z,6.50
2022-12-14T05:08:21.415Z,4.88
2022-12-14T05:11:52.752Z,7.72
2022-12-14T05:14:56.127Z,6.05
2022-12-14T05:18:06.113Z,5.25
2022-12-14T05:21:31.499Z,7.00
2022-12-14T05:24:39.535Z,6.15
2022-12-14T05:27:44.800Z,5.22
2022-12-14T05:30:50.850Z,6.65
2022-12-14T05:33:56.262Z,6.68
2022-12-14T05:37:02.003Z,5.75
2022-12-14T05:40:11.306Z,6.88
2022-12-14T05:43:17.106Z,6.25
2022-12-14T05:46:24.766Z,5.50
2022-12-14T05:49:31.501Z,5.07
2022-12-14T05:52:36.650Z,7.43
2022-12-14T05:55:49.235Z,6.72
2022-12-14T05:58:54.594Z,6.80
2022-12-14T06:02:00.249Z,5.90
2022-12-14T06:05:06.289Z,6.43
2022-12-14T06:08:11.832Z,6.60
2022-12-14T06:11:22.820Z,4.78
2022-12-14T06:14:28.581Z,5.15
2022-12-14T06:17:33.868Z,5.93
2022-12-14T06:20:41.329Z,6.10
2022-12-14T06:23:47.354Z,5.82
2022-12-14T06:26:56.905Z,5.40
2022-12-14T06:30:02.112Z,6.25
2022-12-14T06:33:07.441Z,4.43
2022-12-14T06:36:16.645Z,7.68
2022-12-14T06:39:22.075Z,5.68
2022-12-14T06:42:30.168Z,6.82
2022-12-14T06:45:38.729Z,5.68
2022-12-14T06:48:44.023Z,6.93
2022-12-14T06:51:52.062Z,6.15
2022-12-14T06:54:56.887Z,5.47
2022-12-14T06:58:04.900Z,4.78
2022-12-14T07:01:13.423Z,5.18
2022-12-14T07:04:23.276Z,6.40
2022-12-14T07:07:28.197Z,4.40
2022-12-14T07:10:33.910Z,6.03
2022-12-14T07:13:42.064Z,5.53
2022-12-14T07:16:49.153Z,5.65
2022-12-14T07:19:54.208Z,5.85
2022-12-14T07:23:00.019Z,4.85
2022-12-14T07:26:05.405Z,5.45
2022-12-14T07:29:15.489Z,5.05
2022-12-14T07:32:24.041Z,6.53
2022-12-14T07:35:32.574Z,5.68
2022-12-14T07:38:37.837Z,4.35
2022-12-14T07:41:43.669Z,5.45
2022-12-14T07:44:51.507Z,3.40
2022-12-14T07:48:00.511Z,4.55
2022-12-14T07:51:06.737Z,4.88
2022-12-14T07:54:14.083Z,4.68
2022-12-14T07:57:19.209Z,4.35
2022-12-14T08:00:28.164Z,4.90
2022-12-14T08:03:33.437Z,5.05
2022-12-14T08:06:39.536Z,5.18
2022-12-14T08:09:44.709Z,3.70
2022-12-14T08:12:52.873Z,5.20
2022-12-14T08:16:05.334Z,5.80
2022-12-14T08:19:11.688Z,3.53
2022-12-14T08:22:16.766Z,5.22
2022-12-14T08:25:23.730Z,4.15
2022-12-14T08:28:32.995Z,4.43
2022-12-14T08:31:41.519Z,3.58
2022-12-14T08:34:48.943Z,4.30
2022-12-14T08:37:57.163Z,4.30
2022-12-14T08:41:04.536Z,4.80
2022-12-14T08:44:10.198Z,5.18
2022-12-14T08:47:18.273Z,6.60
2022-12-14T08:50:24.312Z,4.90
2022-12-14T08:53:29.840Z,5.35
2022-12-14T08:56:35.693Z,5.72
2022-12-14T09:03:15.079Z,6.57
2022-12-14T09:06:21.572Z,5.22
2022-12-14T09:09:30.225Z,5.88
2022-12-14T09:12:36.382Z,6.20
2022-12-14T09:15:42.069Z,4.95
2022-12-14T09:18:50.857Z,4.78
2022-12-14T09:21:56.507Z,5.60
2022-12-14T09:25:02.894Z,4.32
2022-12-14T09:28:08.526Z,5.97
2022-12-14T09:31:14.316Z,4.93
2022-12-14T09:34:22.996Z,5.22
2022-12-14T09:37:28.233Z,4.82
2022-12-14T09:40:34.542Z,5.07
2022-12-14T09:43:43.025Z,3.72
2022-12-14T09:46:55.087Z,4.53
2022-12-14T09:50:05.211Z,5.72
2022-12-14T09:53:15.691Z,4.47
2022-12-14T09:56:21.704Z,5.13
2022-12-14T09:59:29.549Z,4.57
2022-12-14T10:02:43.761Z,5.05
2022-12-14T10:06:00.749Z,3.83
2022-12-14T10:09:10.676Z,4.10
2022-12-14T10:12:24.943Z,4.40
2022-12-14T10:15:33.063Z,5.57
2022-12-14T10:19:02.194Z,3.92
2022-12-14T10:22:14.425Z,3.90
2022-12-14T10:25:21.714Z,5.47
2022-12-14T10:28:33.589Z,4.75
2022-12-14T10:31:44.551Z,5.85
2022-12-14T10:34:49.817Z,5.15
2022-12-14T10:38:02.268Z,6.80
2022-12-14T10:41:10.080Z,6.07
2022-12-14T10:44:20.402Z,5.75
2022-12-14T10:47:29.228Z,6.45
2022-12-14T10:50:39.021Z,5.72
2022-12-14T10:53:49.243Z,5.55
2022-12-14T10:56:55.000Z,6.85
2022-12-14T11:00:09.157Z,5.82
2022-12-14T11:03:17.962Z,6.38
2022-12-14T11:06:23.197Z,5.35
2022-12-14T11:09:32.208Z,6.40
2022-12-14T11:12:37.478Z,4.80
2022-12-14T11:15:43.569Z,6.53
2022-12-14T11:18:58.351Z,6.03
2022-12-14T11:22:15.964Z,6.47
2022-12-14T11:25:43.604Z,7.25
2022-12-14T11:28:53.417Z,5.82
2022-12-14T11:31:58.767Z,6.28
2022-12-14T11:35:04.601Z,5.72
2022-12-14T11:38:09.865Z,6.50
2022-12-14T11:41:24.218Z,7.05
2022-12-14T11:44:36.238Z,7.20
2022-12-14T11:47:42.026Z,6.43
2022-12-14T11:50:48.867Z,6.80
2022-12-14T11:54:05.202Z,7.13
2022-12-14T11:57:13.449Z,5.78
2022-12-14T12:00:27.975Z,8.20
2022-12-14T12:03:34.631Z,7.47
2022-12-14T12:06:40.734Z,8.82
2022-12-14T12:09:50.408Z,8.40
2022-12-14T12:12:57.172Z,7.05
2022-12-14T12:16:08.449Z,7.78
2022-12-14T12:19:15.342Z,7.35
2022-12-14T12:22:23.763Z,7.40
2022-12-14T12:25:37.001Z,8.02
2022-12-14T12:28:46.385Z,7.93
2022-12-14T12:31:59.010Z,8.48
2022-12-14T12:35:12.046Z,7.40
2022-12-14T12:38:20.325Z,8.73
2022-12-14T12:41:28.700Z,7.93
2022-12-14T12:44:40.827Z,7.32
2022-12-14T12:47:52.571Z,9.82
2022-12-14T12:51:00.583Z,10.10
2022-12-14T12:54:08.613Z,10.18
2022-12-14T12:57:14.953Z,9.60
2022-12-14T13:00:21.082Z,7.70
2022-12-14T13:03:32.667Z,7.30
2022-12-14T13:06:43.890Z,7.82
2022-12-14T13:09:51.392Z,9.18
2022-12-14T13:12:58.829Z,8.65
2022-12-14T13:16:12.208Z,9.55
2022-12-14T13:22:53.517Z,11.68
2022-12-14T13:26:07.338Z,7.82
2022-12-14T13:29:19.656Z,8.48
2022-12-14T13:32:37.158Z,9.73
2022-12-14T13:35:55.320Z,8.93
2022-12-14T13:39:11.866Z,10.18
2022-12-14T13:42:23.297Z,8.32
2022-12-14T13:45:32.023Z,10.07
2022-12-14T13:48:44.586Z,8.35
2022-12-14T13:51:53.857Z,10.80
2022-12-14T13:54:59.549Z,9.18
2022-12-14T13:58:12.977Z,11.65
2022-12-14T14:01:19.613Z,10.75
2022-12-14T14:04:26.312Z,11.00
2022-12-14T14:07:54.108Z,10.95
2022-12-14T14:11:35.265Z,8.38
2022-12-14T14:14:32.674Z,8.65
2022-12-14T14:17:39.495Z,9.07
2022-12-14T14:20:46.350Z,10.43
2022-12-14T14:24:01.372Z,8.15
2022-12-14T14:27:22.392Z,11.80
2022-12-14T14:30:29.121Z,8.07
2022-12-14T14:33:47.842Z,10.65
2022-12-14T14:36:54.296Z,10.15
2022-12-14T14:40:18.651Z,7.85
2022-12-14T14:43:31.217Z,10.18
2022-12-14T14:46:40.819Z,9.68
2022-12-14T14:49:46.978Z,9.40
2022-12-14T14:53:16.412Z,10.02
2022-12-14T14:56:36.630Z,10.85
2022-12-14T14:59:53.675Z,9.25
2022-12-14T15:03:01.566Z,9.32
2022-12-14T15:06:07.506Z,10.80
2022-12-14T15:09:19.474Z,8.38
2022-12-14T15:12:28.901Z,9.63
2022-12-14T15:15:39.146Z,10.57
2022-12-14T15:18:44.608Z,11.55
2022-12-14T15:21:51.317Z,7.60
2022-12-14T15:24:58.924Z,9.68
2022-12-14T15:28:06.049Z,10.57
2022-12-14T15:31:14.537Z,11.13
2022-12-14T15:34:20.675Z,7.22
2022-12-14T15:37:32.989Z,9.13
2022-12-14T15:40:41.730Z,10.93
2022-12-14T15:44:10.200Z,11.40
2022-12-14T15:47:31.186Z,9.27
2022-12-14T15:50:40.726Z,11.55
2022-12-14T15:53:50.416Z,13.75
2022-12-14T15:56:57.897Z,12.18
2022-12-14T16:00:03.675Z,10.20
2022-12-14T16:03:14.561Z,7.70
2022-12-14T16:06:20.406Z,10.77
2022-12-14T16:09:27.361Z,12.90
2022-12-14T16:12:45.135Z,13.75
2022-12-14T16:15:52.321Z,14.43
2022-12-14T16:19:25.157Z,17.10
2022-12-14T16:22:32.540Z,13.40
2022-12-14T16:25:39.798Z,15.20
2022-12-14T16:28:48.119Z,14.30
2022-12-14T16:31:53.858Z,16.75
2022-12-14T16:35:03.740Z,15.60
2022-12-14T16:38:09.649Z,12.65
2022-12-14T16:41:15.697Z,15.30
2022-12-14T16:44:23.393Z,16.98
2022-12-14T16:47:31.869Z,12.00
2022-12-14T16:50:56.294Z,13.18
2022-12-14T16:54:05.155Z,12.75
2022-12-14T16:57:19.323Z,16.73
2022-12-14T17:00:26.442Z,9.88
2022-12-14T17:03:33.136Z,16.38
2022-12-14T17:06:58.653Z,16.60
2022-12-14T17:10:06.622Z,16.42
2022-12-14T17:13:12.561Z,19.48
2022-12-14T17:16:21.761Z,11.95
2022-12-14T17:19:34.763Z,13.93
2022-12-14T17:22:49.688Z,17.45
2022-12-14T17:25:59.521Z,13.52
2022-12-14T17:29:04.431Z,18.75
2022-12-14T17:32:12.837Z,14.27
2022-12-14T17:35:21.560Z,18.50
2022-12-14T17:38:26.957Z,18.67
2022-12-14T17:41:34.985Z,12.80
2022-12-14T17:44:46.641Z,19.23
2022-12-14T17:47:54.829Z,17.17
2022-12-14T17:51:01.597Z,18.85
2022-12-14T17:54:07.247Z,14.35
2022-12-14T17:57:17.671Z,14.13
2022-12-14T18:00:36.515Z,10.82
2022-12-14T18:03:45.489Z,14.77
2022-12-14T18:06:51.790Z,16.38
2022-12-14T18:09:59.730Z,18.63
2022-12-14T18:13:08.382Z,15.00
2022-12-14T18:16:19.212Z,17.48
2022-12-14T18:19:24.455Z,11.85
2022-12-14T18:22:36.317Z,13.50
2022-12-14T18:25:44.998Z,15.82
2022-12-14T18:28:58.276Z,16.15
2022-12-14T18:32:03.374Z,17.70
2022-12-14T18:35:11.670Z,15.75
2022-12-14T18:38:19.900Z,20.60
2022-12-14T18:41:26.870Z,19.55
2022-12-14T18:44:38.243Z,20.05
2022-12-14T18:47:48.214Z,17.25
2022-12-14T18:50:56.186Z,15.00
2022-12-14T18:54:05.466Z,17.48
2022-12-14T18:57:11.651Z,20.48
2022-12-14T19:00:21.619Z,19.23
2022-12-14T19:03:29.846Z,17.38
2022-12-14T19:06:44.473Z,18.45
2022-12-14T19:09:51.053Z,20.20
2022-12-14T19:12:58.092Z,12.23
2022-12-14T19:16:15.255Z,13.90
2022-12-14T19:19:24.117Z,18.08
2022-12-14T19:22:30.923Z,17.83
2022-12-14T19:25:40.957Z,21.33
2022-12-14T19:28:46.755Z,20.38
2022-12-14T19:31:58.081Z,18.10
2022-12-14T19:35:08.717Z,17.95
2022-12-14T19:38:19.439Z,19.65
2022-12-14T19:41:24.937Z,15.95
2022-12-14T19:44:35.012Z,22.70
2022-12-14T19:47:44.272Z,19.95
2022-12-14T19:50:51.247Z,20.63
2022-12-14T19:54:01.675Z,21.17
2022-12-14T19:57:07.779Z,19.20
2022-12-14T20:00:14.649Z,20.70
2022-12-14T20:03:24.384Z,18.83
2022-12-14T20:06:32.323Z,14.95
2022-12-14T20:09:38.919Z,20.70
2022-12-14T20:12:49.212Z,13.30
2022-12-14T20:15:59.868Z,17.45
2022-12-14T20:19:07.441Z,19.30
2022-12-14T20:22:15.080Z,18.20
2022-12-14T20:25:20.390Z,16.45
2022-12-14T20:28:25.993Z,19.40
2022-12-14T20:31:31.906Z,18.90
2022-12-14T20:34:44.556Z,16.08
2022-12-14T20:37:51.281Z,21.08
2022-12-14T20:40:59.839Z,16.77
2022-12-14T20:44:05.403Z,21.63
2022-12-14T20:47:12.555Z,16.13
2022-12-14T20:50:23.090Z,20.20
2022-12-14T20:53:29.169Z,22.20
2022-12-14T20:56:37.601Z,20.23
2022-12-14T20:59:44.124Z,19.92
2022-12-14T21:02:49.182Z,20.15
2022-12-14T21:05:58.273Z,18.25
2022-12-14T21:09:10.127Z,25.67
2022-12-14T21:12:28.307Z,21.55
2022-12-14T21:15:33.257Z,17.15
2022-12-14T21:18:39.273Z,20.15
2022-12-14T21:21:53.325Z,20.13
2022-12-14T21:25:04.056Z,19.45
2022-12-14T21:28:10.981Z,17.15
2022-12-14T21:31:17.711Z,15.23
2022-12-14T21:34:25.769Z,18.75
2022-12-14T21:37:34.503Z,16.08
2022-12-14T21:40:53.557Z,16.83
2022-12-14T21:43:59.306Z,19.23
2022-12-14T21:47:04.869Z,18.45
2022-12-14T21:50:11.204Z,19.73
2022-12-14T21:53:19.251Z,17.65
2022-12-14T21:56:43.507Z,18.67
2022-12-14T21:59:50.543Z,17.58
2022-12-14T22:02:58.455Z,22.15
2022-12-14T22:06:06.391Z,17.27
2022-12-14T22:09:17.024Z,18.98
2022-12-14T22:15:35.208Z,20.98
2022-12-14T22:18:46.644Z,20.90
2022-12-14T22:22:14.594Z,20.65
2022-12-14T22:25:41.493Z,16.75
2022-12-14T22:28:49.114Z,23.33
2022-12-14T22:31:56.975Z,18.35
2022-12-14T22:38:22.132Z,19.38
2022-12-14T22:41:36.993Z,23.15
2022-12-14T22:44:47.823Z,18.80
2022-12-14T22:47:53.478Z,14.60
2022-12-14T22:51:01.476Z,19.83
2022-12-14T22:54:08.502Z,19.90
2022-12-14T22:57:17.389Z,20.88
2022-12-14T23:00:24.343Z,22.30
2022-12-14T23:03:55.985Z,16.27
2022-12-14T23:07:27.676Z,17.97
2022-12-14T23:10:59.631Z,21.80
2022-12-14T23:14:20.522Z,22.90
2022-12-14T23:17:41.077Z,20.27
2022-12-14T23:20:59.175Z,14.10
2022-12-14T23:24:19.749Z,22.45
2022-12-14T23:27:46.385Z,22.08
2022-12-14T23:31:11.164Z,21.13
2022-12-14T23:34:31.041Z,16.73
2022-12-14T23:37:51.667Z,16.70
2022-12-14T23:41:26.737Z,18.75
2022-12-14T23:44:46.297Z,21.02
2022-12-14T23:48:13.280Z,11.88
2022-12-14T23:51:35.624Z,15.32
2022-12-14T23:54:54.684Z,15.93
2022-12-14T23:58:11.998Z,23.50
